createdAt,value
2018-05-10T00:00:52.998Z,99.90
2018-05-10T00:03:21.226Z,99.90
2018-05-10T00:05:48.690Z,99.90
2018-05-10T00:08:16.166Z,99.90
2018-05-10T00:10:43.638Z,99.90
2018-05-10T00:13:11.889Z,99.90
2018-05-10T00:15:39.373Z,99.90
2018-05-10T00:18:07.609Z,99.90
2018-05-10T00:20:35.099Z,99.90
2018-05-10T00:23:02.590Z,99.90
2018-05-10T00:25:30.061Z,99.90
2018-05-10T00:27:57.555Z,99.90
2018-05-10T00:30:25.021Z,99.90
2018-05-10T00:32:53.989Z,99.90
2018-05-10T00:35:21.497Z,99.90
2018-05-10T00:37:48.978Z,99.90
2018-05-10T00:40:16.457Z,99.90
2018-05-10T00:42:43.946Z,99.90
2018-05-10T00:45:12.189Z,99.90
2018-05-10T00:47:39.653Z,99.90
2018-05-10T00:50:07.128Z,99.90
2018-05-10T00:52:34.609Z,99.90
2018-05-10T00:55:02.874Z,99.90
2018-05-10T00:57:31.100Z,99.90
2018-05-10T00:59:58.566Z,99.90
2018-05-10T01:02:26.056Z,99.90
2018-05-10T01:04:54.361Z,99.90
2018-05-10T01:07:21.762Z,99.90
2018-05-10T01:09:49.245Z,99.90
2018-05-10T01:12:16.745Z,99.90
2018-05-10T01:14:44.204Z,99.90
2018-05-10T01:17:11.680Z,99.90
2018-05-10T01:19:39.156Z,99.90
2018-05-10T01:22:06.641Z,99.90
2018-05-10T01:24:34.905Z,99.90
2018-05-10T01:27:02.373Z,99.90
2018-05-10T01:29:30.675Z,99.90
2018-05-10T01:31:58.150Z,99.90
2018-05-10T01:34:25.612Z,99.90
2018-05-10T01:36:53.099Z,99.90
2018-05-10T01:39:20.601Z,99.90
2018-05-10T01:41:48.072Z,99.90
2018-05-10T01:44:15.596Z,99.90
2018-05-10T01:46:43.828Z,99.90
2018-05-10T01:49:11.305Z,99.90
2018-05-10T01:51:39.537Z,99.90
2018-05-10T01:54:06.993Z,99.90
2018-05-10T01:56:34.473Z,99.90
2018-05-10T01:59:01.947Z,99.90
2018-05-10T02:01:30.194Z,99.90
2018-05-10T02:03:57.661Z,99.90
2018-05-10T02:06:25.119Z,99.90
2018-05-10T02:08:52.591Z,99.90
2018-05-10T02:11:20.072Z,99.90
2018-05-10T02:13:47.549Z,99.90
2018-05-10T02:16:15.004Z,99.90
2018-05-10T02:18:42.497Z,99.90
2018-05-10T02:21:09.974Z,99.90
2018-05-10T02:23:37.441Z,99.90
2018-05-10T02:26:05.688Z,99.90
2018-05-10T02:28:33.152Z,99.90
2018-05-10T02:31:00.617Z,99.90
2018-05-10T02:33:28.222Z,99.90
2018-05-10T02:35:55.713Z,99.90
2018-05-10T02:38:23.176Z,99.90
2018-05-10T02:40:50.634Z,99.90
2018-05-10T02:43:18.118Z,99.90
2018-05-10T02:45:46.359Z,99.90
2018-05-10T02:48:13.835Z,99.90
2018-05-10T02:50:41.338Z,99.90
2018-05-10T02:53:08.817Z,99.90
2018-05-10T02:55:36.305Z,99.90
2018-05-10T02:58:03.789Z,99.90
2018-05-10T03:00:32.021Z,99.90
2018-05-10T03:02:59.507Z,99.90
2018-05-10T03:05:27.753Z,99.90
2018-05-10T03:07:55.225Z,99.90
2018-05-10T03:10:22.697Z,99.90
2018-05-10T03:12:50.941Z,99.90
2018-05-10T03:15:18.405Z,99.90
2018-05-10T03:17:45.881Z,99.90
2018-05-10T03:20:14.124Z,99.90
2018-05-10T03:22:41.588Z,99.90
2018-05-10T03:25:09.057Z,99.90
2018-05-10T03:27:36.561Z,99.90
2018-05-10T03:30:04.024Z,99.90
2018-05-10T03:32:31.504Z,99.90
2018-05-10T03:34:58.981Z,99.90
2018-05-10T03:37:26.438Z,99.90
2018-05-10T03:39:53.921Z,99.90
2018-05-10T03:42:21.453Z,99.90
2018-05-10T03:44:48.925Z,99.90
2018-05-10T03:47:17.190Z,99.90
2018-05-10T03:49:44.658Z,99.90
2018-05-10T03:52:12.967Z,99.90
2018-05-10T03:54:40.526Z,99.90
2018-05-10T03:57:08.082Z,99.90
2018-05-10T03:59:35.541Z,99.90
2018-05-10T04:02:03.036Z,99.90
2018-05-10T04:04:42.335Z,99.90
2018-05-10T04:07:21.677Z,99.90
2018-05-10T04:10:01.088Z,99.90
2018-05-10T04:12:28.569Z,99.90
2018-05-10T04:14:57.002Z,99.90
2018-05-10T04:17:25.241Z,99.90
2018-05-10T04:19:52.725Z,99.90
2018-05-10T04:22:20.956Z,99.90
2018-05-10T04:24:48.418Z,99.90
2018-05-10T04:27:15.908Z,99.90
2018-05-10T04:29:43.372Z,99.90
2018-05-10T04:32:11.681Z,99.90
2018-05-10T04:34:39.081Z,99.90
2018-05-10T04:37:06.551Z,99.90
2018-05-10T04:39:34.014Z,99.90
2018-05-10T04:42:01.514Z,99.90
2018-05-10T04:44:28.972Z,99.90
2018-05-10T04:46:56.437Z,99.90
2018-05-10T04:49:23.915Z,99.90
2018-05-10T04:51:51.384Z,99.90
2018-05-10T04:54:18.869Z,99.90
2018-05-10T04:56:47.112Z,99.90
2018-05-10T04:59:16.167Z,99.90
2018-05-10T05:01:43.661Z,99.90
2018-05-10T05:04:11.121Z,99.90
2018-05-10T05:06:38.637Z,99.90
2018-05-10T05:09:06.172Z,99.90
2018-05-10T05:11:33.591Z,99.90
2018-05-10T05:14:01.084Z,99.90
2018-05-10T05:16:30.201Z,99.90
2018-05-10T05:18:57.671Z,99.90
2018-05-10T05:21:25.164Z,99.90
2018-05-10T05:23:52.624Z,99.90
2018-05-10T05:26:20.128Z,99.90
2018-05-10T05:28:47.596Z,99.90
2018-05-10T05:31:15.081Z,99.90
2018-05-10T05:33:42.549Z,99.90
2018-05-10T05:36:10.022Z,99.90
2018-05-10T05:38:38.285Z,99.90
2018-05-10T05:41:05.866Z,99.90
2018-05-10T05:43:34.168Z,99.90
2018-05-10T05:46:01.569Z,99.90
2018-05-10T05:48:29.046Z,99.90
2018-05-10T05:50:57.289Z,99.90
2018-05-10T05:53:24.764Z,99.90
2018-05-10T05:55:52.229Z,99.90
2018-05-10T05:58:20.544Z,99.90
2018-05-10T06:00:48.035Z,99.90
2018-05-10T06:03:15.510Z,99.90
2018-05-10T06:05:42.987Z,99.90
2018-05-10T06:08:11.237Z,99.90
2018-05-10T06:10:38.725Z,99.90
2018-05-10T06:13:06.972Z,99.90
2018-05-10T06:15:34.539Z,99.90
2018-05-10T06:18:01.941Z,99.90
2018-05-10T06:20:29.442Z,99.90
2018-05-10T06:22:56.972Z,99.90
2018-05-10T06:25:24.465Z,99.90
2018-05-10T06:27:52.650Z,99.90
2018-05-10T06:30:20.911Z,99.90
2018-05-10T06:32:49.152Z,99.90
2018-05-10T06:35:16.615Z,99.90
2018-05-10T06:37:44.102Z,99.90
2018-05-10T06:40:12.353Z,99.90
2018-05-10T06:42:39.824Z,99.90
2018-05-10T06:45:07.334Z,99.90
2018-05-10T06:47:34.783Z,99.90
2018-05-10T06:50:02.266Z,99.90
2018-05-10T06:52:29.738Z,99.90
2018-05-10T06:54:57.572Z,99.90
2018-05-10T06:57:25.081Z,99.90
2018-05-10T06:59:53.317Z,99.90
2018-05-10T07:02:20.784Z,99.90
2018-05-10T07:04:48.278Z,99.90
2018-05-10T07:07:16.515Z,99.90
2018-05-10T07:09:44.114Z,99.90
2018-05-10T07:12:12.281Z,99.90
2018-05-10T07:14:39.749Z,99.90
2018-05-10T07:17:07.998Z,99.90
2018-05-10T07:19:35.515Z,99.90
2018-05-10T07:22:02.982Z,99.90
2018-05-10T07:24:30.452Z,99.90
2018-05-10T07:26:57.949Z,99.90
2018-05-10T07:29:26.177Z,99.90
2018-05-10T07:31:53.667Z,99.90
2018-05-10T07:34:21.133Z,99.90
2018-05-10T07:36:49.381Z,99.90
2018-05-10T07:39:16.896Z,99.90
2018-05-10T07:41:44.376Z,99.90
2018-05-10T07:44:11.836Z,99.90
2018-05-10T07:46:39.345Z,99.90
2018-05-10T07:49:06.824Z,99.90
2018-05-10T07:51:34.317Z,99.90
2018-05-10T07:54:02.431Z,99.90
2018-05-10T07:56:30.653Z,99.90
2018-05-10T07:58:58.125Z,99.90
2018-05-10T08:01:25.613Z,99.90
2018-05-10T08:03:53.852Z,99.90
2018-05-10T08:06:21.484Z,99.90
2018-05-10T08:08:48.973Z,99.90
2018-05-10T08:11:16.461Z,99.90
2018-05-10T08:13:44.701Z,99.90
2018-05-10T08:16:12.191Z,99.90
2018-05-10T08:18:40.441Z,99.90
2018-05-10T08:21:07.983Z,99.90
2018-05-10T08:23:48.957Z,99.90
2018-05-10T08:26:16.436Z,99.90
2018-05-10T08:28:43.917Z,99.90
2018-05-10T08:31:12.155Z,99.90
2018-05-10T08:33:39.642Z,99.90
2018-05-10T08:36:07.880Z,99.90
2018-05-10T08:38:35.359Z,99.90
2018-05-10T08:41:02.838Z,99.90
2018-05-10T08:43:31.073Z,99.90
2018-05-10T08:45:58.528Z,99.90
2018-05-10T08:48:26.028Z,99.90
2018-05-10T08:50:53.510Z,99.90
2018-05-10T08:53:20.976Z,99.90
2018-05-10T08:55:48.481Z,99.90
2018-05-10T08:58:15.933Z,99.90
2018-05-10T09:00:43.417Z,99.90
2018-05-10T09:03:10.901Z,99.90
2018-05-10T09:05:38.397Z,99.90
2018-05-10T09:08:05.856Z,99.90
2018-05-10T09:10:33.351Z,99.90
2018-05-10T09:13:00.816Z,99.90
2018-05-10T09:15:28.283Z,99.90
2018-05-10T09:17:56.879Z,99.90
2018-05-10T09:20:24.488Z,99.90
2018-05-10T09:22:51.869Z,99.90
2018-05-10T09:25:19.361Z,99.90
2018-05-10T09:27:46.861Z,99.90
2018-05-10T09:30:15.105Z,99.90
2018-05-10T09:32:43.339Z,99.90
2018-05-10T09:35:10.831Z,99.90
2018-05-10T09:37:38.421Z,99.90
2018-05-10T09:40:06.665Z,99.90
2018-05-10T09:42:34.149Z,99.90
2018-05-10T09:45:02.391Z,99.90
2018-05-10T09:47:29.869Z,99.90
2018-05-10T09:49:58.128Z,99.90
2018-05-10T09:52:25.603Z,99.90
2018-05-10T09:54:53.073Z,99.90
2018-05-10T09:57:21.324Z,99.90
2018-05-10T09:59:48.811Z,99.90
2018-05-10T10:02:17.060Z,99.90
2018-05-10T10:04:44.543Z,99.90
2018-05-10T10:07:12.009Z,99.90
2018-05-10T10:09:39.521Z,99.90
2018-05-10T10:12:06.996Z,99.90
2018-05-10T10:14:35.313Z,99.90
2018-05-10T10:17:02.879Z,99.90
2018-05-10T10:19:30.410Z,99.90
2018-05-10T10:21:57.814Z,99.90
2018-05-10T10:24:25.442Z,99.90
2018-05-10T10:26:52.914Z,99.90
2018-05-10T10:29:20.384Z,99.90
2018-05-10T10:31:47.889Z,99.90
2018-05-10T10:34:16.117Z,99.90
2018-05-10T10:36:43.625Z,99.90
2018-05-10T10:39:11.870Z,99.90
2018-05-10T10:41:39.334Z,99.90
2018-05-10T10:44:07.602Z,99.90
2018-05-10T10:46:35.089Z,99.90
2018-05-10T10:49:02.577Z,99.90
2018-05-10T10:51:30.043Z,99.90
2018-05-10T10:53:57.550Z,99.90
2018-05-10T10:56:25.778Z,99.90
2018-05-10T10:58:53.253Z,99.90
2018-05-10T11:01:20.738Z,99.90
2018-05-10T11:03:48.976Z,99.90
2018-05-10T11:06:16.437Z,99.90
2018-05-10T11:08:44.708Z,99.90
2018-05-10T11:11:12.195Z,99.90
2018-05-10T11:13:39.687Z,99.90
2018-05-10T11:16:07.183Z,99.90
2018-05-10T11:18:34.657Z,99.90
2018-05-10T11:21:02.163Z,99.90
2018-05-10T11:23:30.981Z,99.90
2018-05-10T11:25:58.506Z,99.90
2018-05-10T11:28:25.969Z,99.90
2018-05-10T11:30:53.468Z,99.90
2018-05-10T11:33:20.984Z,99.90
2018-05-10T11:35:49.187Z,99.90
2018-05-10T11:38:16.691Z,99.90
2018-05-10T11:40:44.173Z,99.90
2018-05-10T11:43:11.649Z,99.90
2018-05-10T11:45:39.148Z,99.90
2018-05-10T11:48:07.385Z,99.90
2018-05-10T11:50:34.860Z,99.90
2018-05-10T11:53:02.336Z,99.90
2018-05-10T11:55:30.576Z,99.90
2018-05-10T11:57:59.984Z,99.90
2018-05-10T12:00:28.942Z,99.90
2018-05-10T12:02:56.401Z,99.90
2018-05-10T12:05:23.892Z,99.90
2018-05-10T12:07:51.406Z,99.90
2018-05-10T12:10:18.890Z,99.90
2018-05-10T12:12:46.422Z,99.90
2018-05-10T12:15:13.891Z,99.90
2018-05-10T12:17:42.165Z,99.90
2018-05-10T12:20:09.675Z,99.90
2018-05-10T12:22:37.954Z,99.90
2018-05-10T12:25:06.193Z,99.90
2018-05-10T12:27:33.686Z,99.90
2018-05-10T12:30:01.935Z,99.90
2018-05-10T12:32:29.414Z,99.90
2018-05-10T12:34:57.695Z,99.90
2018-05-10T12:37:25.940Z,99.90
2018-05-10T12:39:53.411Z,99.90
2018-05-10T12:42:20.905Z,99.90
2018-05-10T12:44:48.386Z,99.90
2018-05-10T12:47:15.861Z,99.90
2018-05-10T12:49:43.350Z,99.90
2018-05-10T12:52:11.592Z,99.90
2018-05-10T12:54:39.084Z,99.90
2018-05-10T12:57:07.389Z,99.90
2018-05-10T12:59:34.841Z,99.90
2018-05-10T13:02:02.328Z,99.90
2018-05-10T13:04:29.866Z,99.90
2018-05-10T13:06:57.574Z,99.90
2018-05-10T13:09:25.094Z,99.90
2018-05-10T13:11:52.592Z,99.90
2018-05-10T13:14:20.097Z,99.90
2018-05-10T13:16:47.589Z,99.90
2018-05-10T13:19:15.090Z,99.90
2018-05-10T13:21:42.593Z,99.90
2018-05-10T13:24:10.072Z,99.90
2018-05-10T13:26:37.540Z,99.90
2018-05-10T13:29:05.037Z,99.90
2018-05-10T13:31:32.988Z,99.90
2018-05-10T13:34:00.462Z,99.90
2018-05-10T13:36:28.023Z,99.90
2018-05-10T13:38:55.580Z,99.90
2018-05-10T13:41:23.068Z,99.90
2018-05-10T13:43:50.689Z,99.90
2018-05-10T13:46:18.181Z,99.90
2018-05-10T13:48:45.648Z,99.90
2018-05-10T13:51:14.638Z,99.90
2018-05-10T13:53:42.132Z,99.90
2018-05-10T13:56:10.388Z,99.90
2018-05-10T13:58:39.389Z,99.90
2018-05-10T14:01:07.647Z,99.90
2018-05-10T14:03:35.164Z,99.90
2018-05-10T14:06:02.652Z,99.90
2018-05-10T14:08:30.887Z,99.90
2018-05-10T14:10:58.544Z,99.90
2018-05-10T14:13:25.942Z,99.90
2018-05-10T14:15:53.413Z,99.90
2018-05-10T14:18:20.880Z,99.90
2018-05-10T14:20:49.145Z,99.90
2018-05-10T14:23:16.608Z,99.90
2018-05-10T14:25:44.928Z,99.90
2018-05-10T14:28:12.422Z,99.90
2018-05-10T14:30:39.889Z,99.90
2018-05-10T14:33:07.371Z,99.90
2018-05-10T14:35:35.777Z,99.90
2018-05-10T14:38:03.229Z,99.90
2018-05-10T14:40:30.705Z,99.50
2018-05-10T14:42:58.236Z,99.30
2018-05-10T14:45:25.703Z,98.40
2018-05-10T14:47:53.193Z,98.40
2018-05-10T14:50:20.687Z,99.10
2018-05-10T14:52:48.958Z,98.80
2018-05-10T14:55:17.204Z,98.30
2018-05-10T14:57:44.661Z,98.30
2018-05-10T15:00:12.182Z,98.00
2018-05-10T15:02:39.648Z,98.90
2018-05-10T15:05:07.150Z,98.90
2018-05-10T15:07:34.660Z,98.90
2018-05-10T15:10:02.143Z,98.40
2018-05-10T15:12:29.605Z,97.90
2018-05-10T15:14:57.097Z,97.70
2018-05-10T15:17:25.339Z,96.80
2018-05-10T15:19:52.805Z,96.80
2018-05-10T15:22:20.294Z,96.70
2018-05-10T15:24:48.659Z,97.10
2018-05-10T15:27:16.064Z,97.10
2018-05-10T15:29:43.552Z,97.30
2018-05-10T15:32:11.074Z,97.30
2018-05-10T15:34:38.548Z,97.40
2018-05-10T15:37:06.036Z,97.20
2018-05-10T15:39:33.501Z,96.50
2018-05-10T15:42:01.722Z,96.50
2018-05-10T15:44:29.266Z,96.50
2018-05-10T15:46:56.724Z,96.40
2018-05-10T15:49:24.200Z,96.70
2018-05-10T15:51:51.810Z,96.90
2018-05-10T15:54:27.255Z,97.00
2018-05-10T15:57:25.866Z,96.90
2018-05-10T15:59:53.428Z,96.90
2018-05-10T16:02:20.940Z,97.10
2018-05-10T16:04:49.182Z,97.50
2018-05-10T16:07:16.654Z,97.50
2018-05-10T16:09:44.132Z,97.60
2018-05-10T16:12:12.354Z,97.70
2018-05-10T16:14:42.748Z,97.70
2018-05-10T16:17:11.105Z,97.60
2018-05-10T16:19:39.340Z,97.90
2018-05-10T16:22:06.804Z,97.90
2018-05-10T16:24:34.273Z,97.50
2018-05-10T16:27:01.789Z,97.80
2018-05-10T16:29:29.245Z,97.70
2018-05-10T16:31:56.725Z,97.40
2018-05-10T16:34:24.273Z,97.20
2018-05-10T16:36:51.834Z,97.30
2018-05-10T16:39:19.313Z,97.40
2018-05-10T16:41:46.782Z,97.20
2018-05-10T16:44:14.251Z,97.10
2018-05-10T16:46:41.752Z,97.20
2018-05-10T16:49:09.233Z,97.30
2018-05-10T16:51:36.709Z,96.90
2018-05-10T16:54:05.247Z,96.90
2018-05-10T16:56:32.725Z,96.90
2018-05-10T16:59:00.261Z,96.90
2018-05-10T17:01:27.740Z,96.40
2018-05-10T17:03:55.208Z,96.30
2018-05-10T17:06:23.654Z,96.50
2018-05-10T17:08:51.115Z,96.10
2018-05-10T17:11:18.589Z,96.40
2018-05-10T17:13:46.076Z,96.50
2018-05-10T17:16:13.584Z,96.70
2018-05-10T17:18:41.137Z,96.90
2018-05-10T17:21:08.748Z,96.80
2018-05-10T17:23:36.323Z,97.40
2018-05-10T17:26:04.680Z,97.90
2018-05-10T17:28:32.227Z,97.90
2018-05-10T17:30:59.741Z,97.60
2018-05-10T17:33:27.932Z,98.00
2018-05-10T17:35:55.425Z,98.00
2018-05-10T17:38:22.894Z,98.20
2018-05-10T17:40:50.360Z,98.40
2018-05-10T17:43:18.617Z,98.20
2018-05-10T17:45:46.080Z,98.20
2018-05-10T17:48:13.636Z,98.40
2018-05-10T17:50:41.789Z,98.50
2018-05-10T17:53:09.266Z,98.50
2018-05-10T17:55:36.767Z,98.30
2018-05-10T17:58:04.224Z,98.10
2018-05-10T18:00:31.693Z,98.30
2018-05-10T18:02:59.188Z,98.60
2018-05-10T18:05:26.637Z,98.80
2018-05-10T18:07:54.111Z,98.80
2018-05-10T18:10:21.594Z,99.00
2018-05-10T18:12:49.057Z,99.10
2018-05-10T18:15:16.528Z,99.10
2018-05-10T18:17:44.016Z,99.00
2018-05-10T18:20:11.489Z,99.20
2018-05-10T18:22:38.967Z,99.40
2018-05-10T18:25:07.267Z,99.50
2018-05-10T18:27:34.724Z,99.50
2018-05-10T18:30:02.281Z,99.50
2018-05-10T18:32:29.753Z,99.60
2018-05-10T18:34:57.236Z,99.70
2018-05-10T18:37:24.715Z,99.70
2018-05-10T18:39:52.951Z,99.90
2018-05-10T18:42:20.417Z,99.90
2018-05-10T18:44:47.918Z,99.90
2018-05-10T18:47:16.153Z,99.90
2018-05-10T18:49:43.781Z,99.90
2018-05-10T18:52:11.283Z,99.90
2018-05-10T18:54:38.823Z,99.90
2018-05-10T18:57:06.249Z,99.90
2018-05-10T18:59:33.723Z,99.90
2018-05-10T19:02:01.192Z,99.90
2018-05-10T19:04:28.654Z,99.90
2018-05-10T19:06:56.171Z,99.90
2018-05-10T19:09:23.629Z,99.90
2018-05-10T19:11:51.105Z,99.90
2018-05-10T19:14:18.603Z,99.90
2018-05-10T19:16:46.072Z,99.90
2018-05-10T19:19:14.448Z,99.90
2018-05-10T19:21:42.688Z,99.90
2018-05-10T19:24:10.160Z,99.90
2018-05-10T19:26:37.643Z,99.90
2018-05-10T19:29:05.955Z,99.90
2018-05-10T19:31:33.431Z,99.90
2018-05-10T19:34:00.919Z,99.90
2018-05-10T19:36:28.758Z,99.90
2018-05-10T19:38:56.219Z,99.90
2018-05-10T19:41:23.701Z,99.90
2018-05-10T19:43:51.949Z,99.90
2018-05-10T19:46:19.411Z,99.90
2018-05-10T19:48:46.918Z,99.90
2018-05-10T19:51:14.476Z,99.90
2018-05-10T19:53:41.881Z,99.90
2018-05-10T19:56:09.500Z,99.90
2018-05-10T19:58:37.008Z,99.90
2018-05-10T20:01:04.470Z,99.90
2018-05-10T20:03:31.974Z,99.90
2018-05-10T20:06:00.918Z,99.90
2018-05-10T20:08:31.424Z,99.90
2018-05-10T20:11:00.449Z,99.90
2018-05-10T20:13:28.666Z,99.90
2018-05-10T20:15:56.162Z,99.90
2018-05-10T20:18:23.669Z,99.90
2018-05-10T20:20:51.177Z,99.90
2018-05-10T20:23:19.303Z,99.90
2018-05-10T20:25:48.509Z,99.90
2018-05-10T20:28:16.091Z,99.90
2018-05-10T20:30:44.328Z,99.90
2018-05-10T20:33:11.805Z,99.90
2018-05-10T20:35:39.297Z,99.90
2018-05-10T20:38:06.798Z,99.90
2018-05-10T20:40:35.087Z,99.90
2018-05-10T20:43:02.598Z,99.90
2018-05-10T20:45:32.297Z,99.90
2018-05-10T20:48:01.724Z,99.90
2018-05-10T20:50:29.319Z,99.90
2018-05-10T20:52:56.869Z,99.90
2018-05-10T20:55:24.333Z,99.90
2018-05-10T20:57:51.803Z,99.90
2018-05-10T21:00:19.283Z,99.90
2018-05-10T21:02:46.752Z,99.90
2018-05-10T21:05:15.066Z,99.90
2018-05-10T21:07:42.553Z,99.90
2018-05-10T21:10:10.030Z,99.90
2018-05-10T21:12:43.435Z,99.90
2018-05-10T21:15:10.937Z,99.90
2018-05-10T21:17:38.402Z,99.90
2018-05-10T21:20:05.875Z,99.90
2018-05-10T21:22:33.353Z,99.90
2018-05-10T21:25:00.841Z,99.90
2018-05-10T21:27:28.326Z,99.90
2018-05-10T21:29:55.797Z,99.90
2018-05-10T21:32:23.276Z,99.90
2018-05-10T21:37:24.655Z,99.90
2018-05-10T21:39:52.899Z,99.90
2018-05-10T21:42:20.362Z,99.90
2018-05-10T21:44:47.872Z,99.90
2018-05-10T21:47:15.313Z,99.90
2018-05-10T21:49:54.766Z,99.90
2018-05-10T21:52:22.333Z,99.90
2018-05-10T21:54:49.789Z,99.90
2018-05-10T21:57:17.288Z,99.90
2018-05-10T21:59:44.761Z,99.90
2018-05-10T22:02:13.066Z,99.90
2018-05-10T22:04:40.588Z,99.90
2018-05-10T22:07:08.056Z,99.90
2018-05-10T22:09:36.325Z,99.90
2018-05-10T22:12:04.668Z,99.90
2018-05-10T22:14:32.139Z,99.90
2018-05-10T22:16:59.613Z,99.90
2018-05-10T22:19:27.865Z,99.90
2018-05-10T22:21:55.327Z,99.90
2018-05-10T22:24:22.823Z,99.90
2018-05-10T22:26:51.042Z,99.90
2018-05-10T22:29:18.509Z,99.90
2018-05-10T22:31:45.984Z,99.90
2018-05-10T22:34:13.450Z,99.90
2018-05-10T22:36:41.766Z,99.90
2018-05-10T22:39:09.233Z,99.90
2018-05-10T22:41:36.697Z,99.90
2018-05-10T22:44:04.172Z,99.90
2018-05-10T22:46:31.750Z,99.90
2018-05-10T22:48:59.216Z,99.90
2018-05-10T22:51:27.469Z,99.90
2018-05-10T22:53:54.941Z,99.90
2018-05-10T22:56:23.166Z,99.90
2018-05-10T22:58:50.648Z,99.90
2018-05-10T23:01:18.129Z,99.90
2018-05-10T23:03:46.364Z,99.90
2018-05-10T23:06:13.937Z,99.90
2018-05-10T23:08:41.325Z,99.90
2018-05-10T23:11:09.552Z,99.90
2018-05-10T23:13:37.032Z,99.90
2018-05-10T23:16:04.491Z,99.90
2018-05-10T23:18:31.950Z,99.90
2018-05-10T23:20:59.438Z,99.90
2018-05-10T23:23:26.920Z,99.90
2018-05-10T23:25:54.377Z,99.90
2018-05-10T23:28:21.931Z,99.90
2018-05-10T23:30:49.489Z,99.90
2018-05-10T23:33:17.051Z,99.90
2018-05-10T23:35:44.532Z,99.90
2018-05-10T23:38:12.009Z,99.90
2018-05-10T23:40:39.476Z,99.90
2018-05-10T23:43:07.076Z,99.90
2018-05-10T23:45:34.550Z,99.90
2018-05-10T23:48:02.013Z,99.90
2018-05-10T23:50:29.489Z,99.90
2018-05-10T23:52:56.945Z,99.90
2018-05-10T23:55:24.410Z,99.90
2018-05-10T23:57:52.652Z,99.90
